Shawondassee, Connecticut
Current Conditions -  °F | °C
As of 5:53 PM on Tuesday 25 Nov 2014 (Local Time) from KWST Reporting Station
Clear Clear  
Wind Chill: 52°   Ceiling: Unl
Heat Index: 52°   Visibility: 10mi
Dew Point: 40°   Wind: 7mph
Humidity: 63%   Direction: 250°WSW
Pressure: 30.02"   Gusts: NA
Location:  41.3809°N, 71.9121°W
Report Text: KWST 252253Z AUTO 25006KT 10SM CLR 11/04 A3002 RMK AO2 SLP163 T01110044
Loading
Personal Weather Stations






























Interactive Weather Map New forecast layout! Learn more

10-Day Weather Forecast

Advertisements
Track Severe Weather on mobile